sensor_id;sensor_type;location;lat;lon;timestamp;pressure;altitude;pressure_sealevel;temperature;humidity
73341;BME280;61578;52.002;5.468;2023-10-19T00:00:06;99231.94;;;13.01;88.55
73341;BME280;61578;52.002;5.468;2023-10-19T00:00:50;99232.09;;;13.00;88.41
73341;BME280;61578;52.002;5.468;2023-10-19T00:01:21;99231.63;;;13.04;88.13
73341;BME280;61578;52.002;5.468;2023-10-19T00:01:58;99228.97;;;13.04;88.20
73341;BME280;61578;52.002;5.468;2023-10-19T00:02:29;99236.94;;;13.04;88.37
73341;BME280;61578;52.002;5.468;2023-10-19T00:03:02;99237.78;;;13.05;88.64
73341;BME280;61578;52.002;5.468;2023-10-19T00:03:33;99226.28;;;13.04;88.44
73341;BME280;61578;52.002;5.468;2023-10-19T00:04:04;99189.63;;;12.80;88.42
73341;BME280;61578;52.002;5.468;2023-10-19T00:04:37;99226.84;;;13.08;88.34
73341;BME280;61578;52.002;5.468;2023-10-19T00:05:10;99232.00;;;13.09;88.55
73341;BME280;61578;52.002;5.468;2023-10-19T00:05:41;99241.16;;;13.07;88.50
73341;BME280;61578;52.002;5.468;2023-10-19T00:06:12;99188.94;;;12.78;88.21
73341;BME280;61578;52.002;5.468;2023-10-19T00:06:43;99231.31;;;13.07;88.23
73341;BME280;61578;52.002;5.468;2023-10-19T00:07:15;99234.69;;;13.09;88.42
73341;BME280;61578;52.002;5.468;2023-10-19T00:07:46;99226.16;;;13.06;88.36
73341;BME280;61578;52.002;5.468;2023-10-19T00:08:17;99227.53;;;13.10;88.48
73341;BME280;61578;52.002;5.468;2023-10-19T00:08:51;99239.16;;;13.09;88.20
73341;BME280;61578;52.002;5.468;2023-10-19T00:09:23;99233.53;;;13.12;88.42
73341;BME280;61578;52.002;5.468;2023-10-19T00:09:53;99229.06;;;13.12;88.21
73341;BME280;61578;52.002;5.468;2023-10-19T00:10:26;99219.06;;;12.97;88.44
73341;BME280;61578;52.002;5.468;2023-10-19T00:11:05;99227.91;;;13.15;88.51
73341;BME280;61578;52.002;5.468;2023-10-19T00:11:38;99221.91;;;13.13;88.75
73341;BME280;61578;52.002;5.468;2023-10-19T00:12:10;99195.50;;;13.02;88.45
73341;BME280;61578;52.002;5.468;2023-10-19T00:12:42;99220.63;;;13.17;88.34
73341;BME280;61578;52.002;5.468;2023-10-19T00:13:14;99216.28;;;13.16;88.37
73341;BME280;61578;52.002;5.468;2023-10-19T00:13:46;99214.59;;;13.15;88.45
73341;BME280;61578;52.002;5.468;2023-10-19T00:14:20;99198.16;;;13.02;88.66
73341;BME280;61578;52.002;5.468;2023-10-19T00:14:52;99208.56;;;13.13;88.43
73341;BME280;61578;52.002;5.468;2023-10-19T00:15:23;99222.13;;;13.19;88.75
73341;BME280;61578;52.002;5.468;2023-10-19T00:15:56;99214.44;;;13.16;88.53
73341;BME280;61578;52.002;5.468;2023-10-19T00:16:30;99218.34;;;13.22;88.68
73341;BME280;61578;52.002;5.468;2023-10-19T00:17:01;99219.00;;;13.24;88.54
73341;BME280;61578;52.002;5.468;2023-10-19T00:17:35;99209.34;;;13.23;88.57
73341;BME280;61578;52.002;5.468;2023-10-19T00:18:08;99212.16;;;13.21;88.37
73341;BME280;61578;52.002;5.468;2023-10-19T00:18:59;99210.50;;;13.20;88.40
73341;BME280;61578;52.002;5.468;2023-10-19T00:19:32;99218.84;;;13.25;88.61
73341;BME280;61578;52.002;5.468;2023-10-19T00:20:10;99215.19;;;13.26;88.66
73341;BME280;61578;52.002;5.468;2023-10-19T00:21:07;99215.03;;;13.28;88.69
73341;BME280;61578;52.002;5.468;2023-10-19T00:21:58;99201.66;;;13.20;88.53
73341;BME280;61578;52.002;5.468;2023-10-19T00:22:39;99222.59;;;13.33;88.51
73341;BME280;61578;52.002;5.468;2023-10-19T00:23:09;99207.88;;;13.29;88.53
73341;BME280;61578;52.002;5.468;2023-10-19T00:23:40;99214.59;;;13.33;88.72
73341;BME280;61578;52.002;5.468;2023-10-19T00:24:11;99197.00;;;13.22;88.76
73341;BME280;61578;52.002;5.468;2023-10-19T00:24:47;99208.09;;;13.35;88.60
73341;BME280;61578;52.002;5.468;2023-10-19T00:25:17;99209.75;;;13.36;88.35
73341;BME280;61578;52.002;5.468;2023-10-19T00:25:48;99213.56;;;13.34;88.54
73341;BME280;61578;52.002;5.468;2023-10-19T00:26:22;99218.28;;;13.40;88.52
73341;BME280;61578;52.002;5.468;2023-10-19T00:26:57;99205.56;;;13.34;88.16
73341;BME280;61578;52.002;5.468;2023-10-19T00:27:27;99211.44;;;13.37;88.48
73341;BME280;61578;52.002;5.468;2023-10-19T00:27:58;99196.53;;;13.26;88.51
73341;BME280;61578;52.002;5.468;2023-10-19T00:28:30;99216.47;;;13.40;88.54
73341;BME280;61578;52.002;5.468;2023-10-19T00:29:05;99211.13;;;13.40;88.47
73341;BME280;61578;52.002;5.468;2023-10-19T00:29:56;99212.97;;;13.40;88.38
73341;BME280;61578;52.002;5.468;2023-10-19T00:30:36;99230.31;;;13.44;88.41
73341;BME280;61578;52.002;5.468;2023-10-19T00:31:07;99219.50;;;13.45;88.33
73341;BME280;61578;52.002;5.468;2023-10-19T00:31:41;99192.19;;;13.25;88.52
73341;BME280;61578;52.002;5.468;2023-10-19T00:32:12;99219.50;;;13.45;88.31
73341;BME280;61578;52.002;5.468;2023-10-19T00:32:45;99226.81;;;13.43;88.10
73341;BME280;61578;52.002;5.468;2023-10-19T00:33:16;99218.97;;;13.42;88.42
73341;BME280;61578;52.002;5.468;2023-10-19T00:33:49;99213.31;;;13.45;88.52
73341;BME280;61578;52.002;5.468;2023-10-19T00:34:22;99212.13;;;13.39;88.61
73341;BME280;61578;52.002;5.468;2023-10-19T00:34:53;99184.19;;;13.25;88.63
73341;BME280;61578;52.002;5.468;2023-10-19T00:35:24;99210.84;;;13.43;88.54
73341;BME280;61578;52.002;5.468;2023-10-19T00:36:00;99182.84;;;13.21;88.49
73341;BME280;61578;52.002;5.468;2023-10-19T00:36:38;99223.84;;;13.46;88.53
73341;BME280;61578;52.002;5.468;2023-10-19T00:37:15;99209.16;;;13.42;88.59
73341;BME280;61578;52.002;5.468;2023-10-19T00:37:50;99217.50;;;13.47;88.47
73341;BME280;61578;52.002;5.468;2023-10-19T00:38:24;99223.84;;;13.46;88.45
73341;BME280;61578;52.002;5.468;2023-10-19T00:38:58;99212.19;;;13.47;88.38
73341;BME280;61578;52.002;5.468;2023-10-19T00:39:31;99208.81;;;13.45;88.80
73341;BME280;61578;52.002;5.468;2023-10-19T00:40:11;99191.25;;;13.35;88.77
73341;BME280;61578;52.002;5.468;2023-10-19T00:40:56;99218.19;;;13.49;88.29
73341;BME280;61578;52.002;5.468;2023-10-19T00:41:30;99215.38;;;13.51;88.81
73341;BME280;61578;52.002;5.468;2023-10-19T00:42:01;99220.72;;;13.51;88.64
73341;BME280;61578;52.002;5.468;2023-10-19T00:42:32;99217.22;;;13.50;88.52
73341;BME280;61578;52.002;5.468;2023-10-19T00:43:03;99217.22;;;13.50;88.52
73341;BME280;61578;52.002;5.468;2023-10-19T00:43:41;99217.22;;;13.50;88.63
73341;BME280;61578;52.002;5.468;2023-10-19T00:44:17;99209.22;;;13.50;88.40
73341;BME280;61578;52.002;5.468;2023-10-19T00:45:06;99212.56;;;13.52;88.44
73341;BME280;61578;52.002;5.468;2023-10-19T00:45:43;99189.81;;;13.40;88.67
73341;BME280;61578;52.002;5.468;2023-10-19T00:46:18;99211.56;;;13.53;88.58
73341;BME280;61578;52.002;5.468;2023-10-19T00:46:49;99219.72;;;13.52;88.84
73341;BME280;61578;52.002;5.468;2023-10-19T00:47:31;99212.56;;;13.52;88.46
73341;BME280;61578;52.002;5.468;2023-10-19T00:48:10;99192.31;;;13.42;88.25
73341;BME280;61578;52.002;5.468;2023-10-19T00:48:49;99199.16;;;13.44;88.64
73341;BME280;61578;52.002;5.468;2023-10-19T00:49:20;99192.47;;;13.40;88.49
73341;BME280;61578;52.002;5.468;2023-10-19T00:49:53;99214.75;;;13.57;89.02
73341;BME280;61578;52.002;5.468;2023-10-19T00:50:25;99205.69;;;13.50;88.67
73341;BME280;61578;52.002;5.468;2023-10-19T00:51:01;99208.41;;;13.58;88.71
73341;BME280;61578;52.002;5.468;2023-10-19T00:51:58;99183.50;;;13.41;88.84
73341;BME280;61578;52.002;5.468;2023-10-19T00:52:42;99199.03;;;13.54;88.95
73341;BME280;61578;52.002;5.468;2023-10-19T00:53:20;99199.72;;;13.56;88.60
73341;BME280;61578;52.002;5.468;2023-10-19T00:53:50;99203.91;;;13.58;88.62
73341;BME280;61578;52.002;5.468;2023-10-19T00:54:26;99140.06;;;13.23;88.38
73341;BME280;61578;52.002;5.468;2023-10-19T00:55:06;99194.09;;;13.59;88.62
73341;BME280;61578;52.002;5.468;2023-10-19T00:55:38;99197.06;;;13.56;88.63
73341;BME280;61578;52.002;5.468;2023-10-19T00:56:10;99201.25;;;13.58;89.17
73341;BME280;61578;52.002;5.468;2023-10-19T00:56:46;99166.81;;;13.39;88.51
73341;BME280;61578;52.002;5.468;2023-10-19T00:57:22;99185.25;;;13.58;88.92
73341;BME280;61578;52.002;5.468;2023-10-19T00:58:13;99195.63;;;13.61;88.49
73341;BME280;61578;52.002;5.468;2023-10-19T00:58:48;99192.56;;;13.56;88.70
73341;BME280;61578;52.002;5.468;2023-10-19T00:59:24;99162.19;;;13.49;88.62
73341;BME280;61578;52.002;5.468;2023-10-19T01:00:01;99189.28;;;13.62;88.76
73341;BME280;61578;52.002;5.468;2023-10-19T01:00:52;99193.44;;;13.65;88.94
73341;BME280;61578;52.002;5.468;2023-10-19T01:01:28;99171.09;;;13.58;88.68
73341;BME280;61578;52.002;5.468;2023-10-19T01:02:01;99187.47;;;13.63;88.77
73341;BME280;61578;52.002;5.468;2023-10-19T01:03:00;99145.63;;;13.38;88.96
73341;BME280;61578;52.002;5.468;2023-10-19T01:03:32;99172.72;;;13.51;88.81
73341;BME280;61578;52.002;5.468;2023-10-19T01:04:07;99190.78;;;13.65;89.08
73341;BME280;61578;52.002;5.468;2023-10-19T01:04:38;99180.94;;;13.66;89.04
73341;BME280;61578;52.002;5.468;2023-10-19T01:05:13;99142.16;;;13.45;88.67
73341;BME280;61578;52.002;5.468;2023-10-19T01:05:44;99183.31;;;13.69;89.17
73341;BME280;61578;52.002;5.468;2023-10-19T01:06:18;99184.69;;;13.73;88.83
73341;BME280;61578;52.002;5.468;2023-10-19T01:06:50;99187.84;;;13.76;89.12
73341;BME280;61578;52.002;5.468;2023-10-19T01:07:42;99184.00;;;13.71;88.65
73341;BME280;61578;52.002;5.468;2023-10-19T01:08:15;99185.81;;;13.70;88.69
73341;BME280;61578;52.002;5.468;2023-10-19T01:09:01;99182.34;;;13.78;88.87
73341;BME280;61578;52.002;5.468;2023-10-19T01:09:33;99183.50;;;13.75;89.06
73341;BME280;61578;52.002;5.468;2023-10-19T01:10:09;99187.00;;;13.76;89.40
73341;BME280;61578;52.002;5.468;2023-10-19T01:10:51;99184.88;;;13.79;89.13
73341;BME280;61578;52.002;5.468;2023-10-19T01:11:23;99182.19;;;13.79;89.06
73341;BME280;61578;52.002;5.468;2023-10-19T01:11:58;99192.56;;;13.82;88.95
73341;BME280;61578;52.002;5.468;2023-10-19T01:12:32;99179.53;;;13.79;89.20
73341;BME280;61578;52.002;5.468;2023-10-19T01:13:03;99169.28;;;13.67;89.03
73341;BME280;61578;52.002;5.468;2023-10-19T01:13:36;99181.22;;;13.80;88.92
73341;BME280;61578;52.002;5.468;2023-10-19T01:14:21;99181.38;;;13.79;88.82
73341;BME280;61578;52.002;5.468;2023-10-19T01:15:02;99179.72;;;13.86;89.02
73341;BME280;61578;52.002;5.468;2023-10-19T01:15:44;99180.72;;;13.85;89.33
73341;BME280;61578;52.002;5.468;2023-10-19T01:16:19;99175.38;;;13.85;89.01
73341;BME280;61578;52.002;5.468;2023-10-19T01:16:53;99174.38;;;13.86;89.06
73341;BME280;61578;52.002;5.468;2023-10-19T01:17:27;99178.56;;;13.88;89.18
73341;BME280;61578;52.002;5.468;2023-10-19T01:18:01;99102.00;;;13.39;88.84
73341;BME280;61578;52.002;5.468;2023-10-19T01:18:32;99181.91;;;13.90;89.04
73341;BME280;61578;52.002;5.468;2023-10-19T01:19:03;99183.91;;;13.88;89.51
73341;BME280;61578;52.002;5.468;2023-10-19T01:19:36;99192.44;;;13.92;89.09
73341;BME280;61578;52.002;5.468;2023-10-19T01:20:10;99185.94;;;13.94;89.28
73341;BME280;61578;52.002;5.468;2023-10-19T01:20:59;99175.44;;;13.93;89.07
73341;BME280;61578;52.002;5.468;2023-10-19T01:21:34;99183.25;;;13.94;88.92
73341;BME280;61578;52.002;5.468;2023-10-19T01:22:10;99176.59;;;13.90;88.87
73341;BME280;61578;52.002;5.468;2023-10-19T01:22:59;99188.44;;;13.96;88.67
73341;BME280;61578;52.002;5.468;2023-10-19T01:23:38;99176.28;;;13.93;88.81
73341;BME280;61578;52.002;5.468;2023-10-19T01:24:10;99190.94;;;13.97;88.80
73341;BME280;61578;52.002;5.468;2023-10-19T01:24:43;99186.44;;;13.98;89.13
73341;BME280;61578;52.002;5.468;2023-10-19T01:25:14;99183.44;;;13.93;89.13
73341;BME280;61578;52.002;5.468;2023-10-19T01:25:58;99179.09;;;13.92;88.90
73341;BME280;61578;52.002;5.468;2023-10-19T01:26:30;99183.94;;;13.96;88.86
73341;BME280;61578;52.002;5.468;2023-10-19T01:27:00;99189.81;;;14.00;89.19
73341;BME280;61578;52.002;5.468;2023-10-19T01:27:34;99198.66;;;14.00;88.51
73341;BME280;61578;52.002;5.468;2023-10-19T01:28:09;99193.84;;;14.04;89.13
73341;BME280;61578;52.002;5.468;2023-10-19T01:28:41;99189.50;;;14.03;89.01
73341;BME280;61578;52.002;5.468;2023-10-19T01:29:11;99172.78;;;13.93;89.15
73341;BME280;61578;52.002;5.468;2023-10-19T01:29:56;99179.47;;;14.05;89.24
73341;BME280;61578;52.002;5.468;2023-10-19T01:30:30;99164.78;;;13.93;89.24
73341;BME280;61578;52.002;5.468;2023-10-19T01:31:01;99188.84;;;14.09;88.98
73341;BME280;61578;52.002;5.468;2023-10-19T01:31:36;99174.47;;;14.02;88.97
73341;BME280;61578;52.002;5.468;2023-10-19T01:32:30;99190.66;;;14.09;89.04
73341;BME280;61578;52.002;5.468;2023-10-19T01:33:00;99170.28;;;13.99;89.14
73341;BME280;61578;52.002;5.468;2023-10-19T01:33:31;99148.53;;;13.86;89.30
73341;BME280;61578;52.002;5.468;2023-10-19T01:34:02;99180.81;;;14.09;89.04
73341;BME280;61578;52.002;5.468;2023-10-19T01:34:36;99183.66;;;14.08;88.96
73341;BME280;61578;52.002;5.468;2023-10-19T01:35:07;99186.00;;;14.11;89.07
73341;BME280;61578;52.002;5.468;2023-10-19T01:35:42;99186.00;;;14.11;89.15
73341;BME280;61578;52.002;5.468;2023-10-19T01:36:31;99178.84;;;14.11;88.60
73341;BME280;61578;52.002;5.468;2023-10-19T01:37:14;99172.50;;;14.12;89.32
73341;BME280;61578;52.002;5.468;2023-10-19T01:37:45;99172.66;;;14.11;89.50
73341;BME280;61578;52.002;5.468;2023-10-19T01:38:16;99178.34;;;14.16;88.94
73341;BME280;61578;52.002;5.468;2023-10-19T01:38:46;99176.50;;;14.16;89.43
73341;BME280;61578;52.002;5.468;2023-10-19T01:39:17;99150.28;;;14.04;89.59
73341;BME280;61578;52.002;5.468;2023-10-19T01:39:49;99170.34;;;14.16;89.50
73341;BME280;61578;52.002;5.468;2023-10-19T01:40:19;99178.72;;;14.21;89.45
73341;BME280;61578;52.002;5.468;2023-10-19T01:40:51;99174.53;;;14.18;89.41
73341;BME280;61578;52.002;5.468;2023-10-19T01:41:23;99177.72;;;14.22;89.12
73341;BME280;61578;52.002;5.468;2023-10-19T01:41:54;99154.13;;;14.09;89.03
73341;BME280;61578;52.002;5.468;2023-10-19T01:42:31;99164.84;;;14.17;89.46
73341;BME280;61578;52.002;5.468;2023-10-19T01:43:02;99151.16;;;14.12;89.26
73341;BME280;61578;52.002;5.468;2023-10-19T01:43:34;99155.81;;;14.10;89.02
73341;BME280;61578;52.002;5.468;2023-10-19T01:44:07;99155.97;;;14.09;89.47
73341;BME280;61578;52.002;5.468;2023-10-19T01:44:38;99168.03;;;14.21;89.55
73341;BME280;61578;52.002;5.468;2023-10-19T01:45:08;99167.03;;;14.22;89.19
73341;BME280;61578;52.002;5.468;2023-10-19T01:45:41;99167.22;;;14.28;88.87
73341;BME280;61578;52.002;5.468;2023-10-19T01:46:14;99170.88;;;14.27;89.17
73341;BME280;61578;52.002;5.468;2023-10-19T01:46:52;99156.66;;;14.19;88.95
73341;BME280;61578;52.002;5.468;2023-10-19T01:47:32;99163.69;;;14.28;89.74
73341;BME280;61578;52.002;5.468;2023-10-19T01:48:02;99172.38;;;14.30;89.31
73341;BME280;61578;52.002;5.468;2023-10-19T01:48:34;99169.03;;;14.28;89.53
73341;BME280;61578;52.002;5.468;2023-10-19T01:49:06;99161.34;;;14.25;89.70
73341;BME280;61578;52.002;5.468;2023-10-19T01:49:38;99172.91;;;14.33;89.53
73341;BME280;61578;52.002;5.468;2023-10-19T01:50:09;99174.06;;;14.31;89.39
73341;BME280;61578;52.002;5.468;2023-10-19T01:50:50;99169.25;;;14.34;88.92
73341;BME280;61578;52.002;5.468;2023-10-19T01:51:25;99168.41;;;14.34;89.01
73341;BME280;61578;52.002;5.468;2023-10-19T01:51:57;99165.38;;;14.29;89.02
73341;BME280;61578;52.002;5.468;2023-10-19T01:52:30;99159.72;;;14.32;89.18
73341;BME280;61578;52.002;5.468;2023-10-19T01:53:01;99169.25;;;14.34;89.10
73341;BME280;61578;52.002;5.468;2023-10-19T01:53:43;99172.91;;;14.33;89.60
73341;BME280;61578;52.002;5.468;2023-10-19T01:54:16;99174.59;;;14.34;89.74
73341;BME280;61578;52.002;5.468;2023-10-19T01:54:48;99182.25;;;14.37;89.84
73341;BME280;61578;52.002;5.468;2023-10-19T01:55:26;99176.63;;;14.41;89.99
73341;BME280;61578;52.002;5.468;2023-10-19T01:55:57;99160.59;;;14.41;89.81
73341;BME280;61578;52.002;5.468;2023-10-19T01:56:28;99167.63;;;14.42;89.83
73341;BME280;61578;52.002;5.468;2023-10-19T01:56:59;99171.63;;;14.46;89.98
73341;BME280;61578;52.002;5.468;2023-10-19T01:57:31;99155.94;;;14.43;89.74
73341;BME280;61578;52.002;5.468;2023-10-19T01:58:01;99168.94;;;14.46;89.98
73341;BME280;61578;52.002;5.468;2023-10-19T01:58:32;99170.47;;;14.48;89.65
73341;BME280;61578;52.002;5.468;2023-10-19T01:59:06;99166.78;;;14.49;89.74
73341;BME280;61578;52.002;5.468;2023-10-19T01:59:39;99162.97;;;14.52;89.78
73341;BME280;61578;52.002;5.468;2023-10-19T02:00:10;99162.13;;;14.51;89.71
73341;BME280;61578;52.002;5.468;2023-10-19T02:00:47;99161.13;;;14.52;89.70
73341;BME280;61578;52.002;5.468;2023-10-19T02:01:19;99171.66;;;14.54;89.42
73341;BME280;61578;52.002;5.468;2023-10-19T02:01:50;99160.44;;;14.50;90.05
73341;BME280;61578;52.002;5.468;2023-10-19T02:02:21;99166.97;;;14.56;89.73
73341;BME280;61578;52.002;5.468;2023-10-19T02:02:52;99172.13;;;14.57;89.52
73341;BME280;61578;52.002;5.468;2023-10-19T02:03:23;99167.47;;;14.59;89.27
73341;BME280;61578;52.002;5.468;2023-10-19T02:03:59;99166.63;;;14.59;89.40
73341;BME280;61578;52.002;5.468;2023-10-19T02:04:33;99164.81;;;14.59;89.25
73341;BME280;61578;52.002;5.468;2023-10-19T02:05:06;99161.47;;;14.57;89.18
73341;BME280;61578;52.002;5.468;2023-10-19T02:05:43;99152.97;;;14.54;89.34
73341;BME280;61578;52.002;5.468;2023-10-19T02:06:15;99150.44;;;14.52;89.70
73341;BME280;61578;52.002;5.468;2023-10-19T02:06:49;99166.16;;;14.63;89.58
73341;BME280;61578;52.002;5.468;2023-10-19T02:07:23;99170.66;;;14.63;89.85
73341;BME280;61578;52.002;5.468;2023-10-19T02:07:54;99166.47;;;14.68;90.10
73341;BME280;61578;52.002;5.468;2023-10-19T02:08:25;99165.66;;;14.68;89.88
73341;BME280;61578;52.002;5.468;2023-10-19T02:09:47;99165.50;;;14.69;89.44
73341;BME280;61578;52.002;5.468;2023-10-19T02:10:18;99132.59;;;14.53;89.48
73341;BME280;61578;52.002;5.468;2023-10-19T02:10:49;99169.84;;;14.70;89.34
73341;BME280;61578;52.002;5.468;2023-10-19T02:11:23;99140.94;;;14.58;89.45
73341;BME280;61578;52.002;5.468;2023-10-19T02:11:56;99167.16;;;14.70;89.59
73341;BME280;61578;52.002;5.468;2023-10-19T02:12:27;99162.81;;;14.69;89.88
73341;BME280;61578;52.002;5.468;2023-10-19T02:13:00;99134.75;;;14.57;89.95
73341;BME280;61578;52.002;5.468;2023-10-19T02:13:30;99149.97;;;14.65;90.04
73341;BME280;61578;52.002;5.468;2023-10-19T02:14:01;99171.00;;;14.76;89.96
73341;BME280;61578;52.002;5.468;2023-10-19T02:14:34;99153.97;;;14.77;89.90
73341;BME280;61578;52.002;5.468;2023-10-19T02:15:05;99162.66;;;14.79;89.92
73341;BME280;61578;52.002;5.468;2023-10-19T02:15:36;99155.31;;;14.81;89.94
73341;BME280;61578;52.002;5.468;2023-10-19T02:16:07;99166.16;;;14.80;89.31
73341;BME280;61578;52.002;5.468;2023-10-19T02:16:38;99152.81;;;14.71;89.45
73341;BME280;61578;52.002;5.468;2023-10-19T02:17:09;99160.97;;;14.78;89.74
73341;BME280;61578;52.002;5.468;2023-10-19T02:17:40;99138.44;;;14.64;89.79
73341;BME280;61578;52.002;5.468;2023-10-19T02:18:10;99157.31;;;14.79;89.86
73341;BME280;61578;52.002;5.468;2023-10-19T02:18:42;99155.31;;;14.81;89.37
73341;BME280;61578;52.002;5.468;2023-10-19T02:19:14;99158.81;;;14.82;89.61
73341;BME280;61578;52.002;5.468;2023-10-19T02:19:45;99151.97;;;14.79;89.75
73341;BME280;61578;52.002;5.468;2023-10-19T02:20:15;99140.28;;;14.72;89.12
73341;BME280;61578;52.002;5.468;2023-10-19T02:20:48;99154.31;;;14.82;89.13
73341;BME280;61578;52.002;5.468;2023-10-19T02:21:22;99154.47;;;14.81;88.99
73341;BME280;61578;52.002;5.468;2023-10-19T02:21:55;99160.66;;;14.81;89.55
73341;BME280;61578;52.002;5.468;2023-10-19T02:22:27;99112.91;;;14.54;89.46
73341;BME280;61578;52.002;5.468;2023-10-19T02:22:59;99163.84;;;14.85;90.12
73341;BME280;61578;52.002;5.468;2023-10-19T02:23:33;99162.84;;;14.86;89.93
73341;BME280;61578;52.002;5.468;2023-10-19T02:24:08;99165.69;;;14.84;89.60
73341;BME280;61578;52.002;5.468;2023-10-19T02:24:42;99160.50;;;14.83;89.19
73341;BME280;61578;52.002;5.468;2023-10-19T02:25:13;99159.97;;;14.87;89.44
73341;BME280;61578;52.002;5.468;2023-10-19T02:25:44;99158.50;;;14.85;89.78
73341;BME280;61578;52.002;5.468;2023-10-19T02:26:15;99153.81;;;14.87;90.08
73341;BME280;61578;52.002;5.468;2023-10-19T02:26:48;99158.16;;;14.88;89.65
73341;BME280;61578;52.002;5.468;2023-10-19T02:27:21;99152.16;;;14.86;90.08
73341;BME280;61578;52.002;5.468;2023-10-19T02:27:52;99152.47;;;14.83;89.75
73341;BME280;61578;52.002;5.468;2023-10-19T02:28:23;99129.28;;;14.75;90.14
73341;BME280;61578;52.002;5.468;2023-10-19T02:29:00;99157.00;;;14.90;89.85
73341;BME280;61578;52.002;5.468;2023-10-19T02:29:30;99162.34;;;14.90;90.17
73341;BME280;61578;52.002;5.468;2023-10-19T02:30:02;99158.50;;;14.93;90.42
73341;BME280;61578;52.002;5.468;2023-10-19T02:30:35;99134.63;;;14.75;90.24
73341;BME280;61578;52.002;5.468;2023-10-19T02:31:06;99155.66;;;14.94;89.98
73341;BME280;61578;52.002;5.468;2023-10-19T02:31:49;99158.66;;;14.99;90.67
73341;BME280;61578;52.002;5.468;2023-10-19T02:32:20;99163.84;;;15.01;89.96
73341;BME280;61578;52.002;5.468;2023-10-19T02:32:51;99153.16;;;15.01;90.11
73341;BME280;61578;52.002;5.468;2023-10-19T02:33:23;99158.50;;;15.01;90.07
73341;BME280;61578;52.002;5.468;2023-10-19T02:33:56;99153.81;;;15.03;90.29
73341;BME280;61578;52.002;5.468;2023-10-19T02:34:30;99153.97;;;15.01;90.39
73341;BME280;61578;52.002;5.468;2023-10-19T02:35:01;99154.81;;;15.02;90.64
73341;BME280;61578;52.002;5.468;2023-10-19T02:35:33;99149.78;;;15.07;90.00
73341;BME280;61578;52.002;5.468;2023-10-19T02:36:05;99154.81;;;15.10;89.81
73341;BME280;61578;52.002;5.468;2023-10-19T02:36:44;99154.47;;;15.13;89.29
73341;BME280;61578;52.002;5.468;2023-10-19T02:37:17;99153.31;;;15.16;89.57
73341;BME280;61578;52.002;5.468;2023-10-19T02:37:47;99158.81;;;15.14;89.52
73341;BME280;61578;52.002;5.468;2023-10-19T02:38:18;99151.47;;;15.16;89.40
73341;BME280;61578;52.002;5.468;2023-10-19T02:38:49;99139.28;;;15.14;89.62
73341;BME280;61578;52.002;5.468;2023-10-19T02:39:21;99137.44;;;15.14;89.89
73341;BME280;61578;52.002;5.468;2023-10-19T02:39:55;99152.63;;;15.22;89.40
73341;BME280;61578;52.002;5.468;2023-10-19T02:40:26;99144.25;;;15.17;89.39
73341;BME280;61578;52.002;5.468;2023-10-19T02:41:01;99145.78;;;15.19;89.60
73341;BME280;61578;52.002;5.468;2023-10-19T02:41:39;99129.91;;;15.09;89.43
73341;BME280;61578;52.002;5.468;2023-10-19T02:42:11;99141.94;;;15.22;89.68
73341;BME280;61578;52.002;5.468;2023-10-19T02:42:42;99140.25;;;15.21;90.25
73341;BME280;61578;52.002;5.468;2023-10-19T02:43:16;99145.13;;;15.25;89.98
73341;BME280;61578;52.002;5.468;2023-10-19T02:43:47;99128.59;;;15.14;89.38
73341;BME280;61578;52.002;5.468;2023-10-19T02:44:27;99146.94;;;15.25;89.48
73341;BME280;61578;52.002;5.468;2023-10-19T02:45:00;99145.75;;;15.27;89.52
73341;BME280;61578;52.002;5.468;2023-10-19T02:45:31;99150.25;;;15.27;89.54
73341;BME280;61578;52.002;5.468;2023-10-19T02:46:01;99145.94;;;15.26;89.79
73341;BME280;61578;52.002;5.468;2023-10-19T02:46:34;99147.78;;;15.25;89.33
73341;BME280;61578;52.002;5.468;2023-10-19T02:47:08;99144.75;;;15.28;89.53
73341;BME280;61578;52.002;5.468;2023-10-19T02:47:46;99154.28;;;15.31;88.86
73341;BME280;61578;52.002;5.468;2023-10-19T02:48:16;99128.91;;;15.19;88.08
73341;BME280;61578;52.002;5.468;2023-10-19T02:48:47;99142.78;;;15.22;88.49
73341;BME280;61578;52.002;5.468;2023-10-19T02:49:21;99141.44;;;15.26;89.70
73341;BME280;61578;52.002;5.468;2023-10-19T02:49:52;99138.59;;;15.20;89.94
73341;BME280;61578;52.002;5.468;2023-10-19T02:50:26;99121.56;;;15.13;89.82
73341;BME280;61578;52.002;5.468;2023-10-19T02:50:56;99156.63;;;15.34;90.29
73341;BME280;61578;52.002;5.468;2023-10-19T02:51:36;99162.66;;;15.36;89.25
73341;BME280;61578;52.002;5.468;2023-10-19T02:52:07;99155.63;;;15.35;88.93
73341;BME280;61578;52.002;5.468;2023-10-19T02:52:37;99147.94;;;15.32;88.90
73341;BME280;61578;52.002;5.468;2023-10-19T02:53:08;99152.63;;;15.30;88.68
73341;BME280;61578;52.002;5.468;2023-10-19T02:53:43;99161.31;;;15.32;89.33
73341;BME280;61578;52.002;5.468;2023-10-19T02:54:21;99150.44;;;15.33;90.25
73341;BME280;61578;52.002;5.468;2023-10-19T02:54:54;99144.09;;;15.34;90.18
73341;BME280;61578;52.002;5.468;2023-10-19T02:55:27;99155.47;;;15.36;89.94
73341;BME280;61578;52.002;5.468;2023-10-19T02:55:57;99151.59;;;15.39;90.23
73341;BME280;61578;52.002;5.468;2023-10-19T02:56:32;99145.75;;;15.43;90.01
73341;BME280;61578;52.002;5.468;2023-10-19T02:57:05;99129.53;;;15.29;89.28
73341;BME280;61578;52.002;5.468;2023-10-19T02:57:43;99149.75;;;15.39;88.78
73341;BME280;61578;52.002;5.468;2023-10-19T02:58:16;99147.59;;;15.35;89.30
73341;BME280;61578;52.002;5.468;2023-10-19T02:58:47;99150.13;;;15.36;90.03
73341;BME280;61578;52.002;5.468;2023-10-19T02:59:22;99156.78;;;15.40;89.22
73341;BME280;61578;52.002;5.468;2023-10-19T02:59:54;99155.09;;;15.39;89.36
73341;BME280;61578;52.002;5.468;2023-10-19T03:00:25;99155.94;;;15.40;89.76
73341;BME280;61578;52.002;5.468;2023-10-19T03:01:11;99145.91;;;15.42;90.41
73341;BME280;61578;52.002;5.468;2023-10-19T03:01:44;99149.25;;;15.44;90.09
73341;BME280;61578;52.002;5.468;2023-10-19T03:02:14;99151.25;;;15.50;89.85